createdAt,value
2023-03-25T00:00:01.604Z,61.27
2023-03-25T00:03:07.567Z,61.27
2023-03-25T00:06:14.702Z,61.31
2023-03-25T00:09:21.094Z,61.35
2023-03-25T00:12:27.670Z,61.39
2023-03-25T00:15:33.691Z,61.38
2023-03-25T00:18:44.372Z,61.38
2023-03-25T00:21:56.381Z,61.36
2023-03-25T00:25:03.647Z,61.39
2023-03-25T00:28:08.597Z,61.44
2023-03-25T00:31:15.970Z,61.45
2023-03-25T00:34:23.972Z,61.45
2023-03-25T00:37:32.026Z,61.44
2023-03-25T00:40:40.186Z,61.46
2023-03-25T00:43:47.408Z,61.46
2023-03-25T00:46:52.837Z,61.51
2023-03-25T00:50:00.769Z,61.49
2023-03-25T00:53:07.542Z,61.54
2023-03-25T00:56:14.287Z,61.56
2023-03-25T00:59:20.796Z,61.60
2023-03-25T01:02:27.980Z,61.62
2023-03-25T01:05:35.475Z,61.64
2023-03-25T01:08:42.315Z,61.66
2023-03-25T01:11:48.492Z,61.70
2023-03-25T01:14:54.583Z,61.75
2023-03-25T01:18:00.617Z,61.80
2023-03-25T01:21:07.442Z,61.78
2023-03-25T01:24:18.339Z,61.76
2023-03-25T01:27:23.793Z,61.77
2023-03-25T01:30:31.427Z,61.81
2023-03-25T01:33:39.066Z,61.83
2023-03-25T01:36:48.009Z,61.83
2023-03-25T01:39:55.561Z,61.87
2023-03-25T01:43:02.395Z,61.90
2023-03-25T01:46:08.933Z,61.97
2023-03-25T01:49:15.863Z,62.01
2023-03-25T01:52:28.388Z,62.04
2023-03-25T01:55:34.856Z,62.07
2023-03-25T01:58:42.651Z,62.12
2023-03-25T02:01:48.725Z,62.18
2023-03-25T02:05:17.477Z,62.24
2023-03-25T02:08:24.943Z,62.23
2023-03-25T02:11:32.923Z,62.28
2023-03-25T02:14:43.850Z,62.31
2023-03-25T02:18:04.724Z,62.36
2023-03-25T02:21:59.290Z,62.41
2023-03-25T02:25:17.195Z,62.42
2023-03-25T02:28:48.905Z,62.50
2023-03-25T02:32:22.325Z,62.48
2023-03-25T02:35:59.449Z,62.48
2023-03-25T02:39:08.184Z,62.49
2023-03-25T02:42:41.633Z,62.53
2023-03-25T02:45:50.039Z,62.52
2023-03-25T02:49:17.056Z,62.58
2023-03-25T02:52:33.668Z,62.60
2023-03-25T02:55:40.254Z,62.53
2023-03-25T02:58:45.271Z,62.45
2023-03-25T03:01:52.684Z,62.38
2023-03-25T03:05:11.053Z,62.33
2023-03-25T03:08:49.546Z,62.36
2023-03-25T03:12:28.575Z,62.39
2023-03-25T03:15:43.157Z,62.46
2023-03-25T03:19:08.725Z,62.49
2023-03-25T03:22:19.613Z,62.53
2023-03-25T03:25:38.676Z,62.57
2023-03-25T03:28:54.217Z,62.61
2023-03-25T03:32:23.590Z,62.70
2023-03-25T03:35:44.759Z,62.68
2023-03-25T03:39:00.620Z,62.66
2023-03-25T03:42:10.969Z,62.60
2023-03-25T03:45:24.030Z,62.62
2023-03-25T03:48:37.670Z,62.68
2023-03-25T03:51:54.664Z,62.75
2023-03-25T03:55:07.255Z,62.80
2023-03-25T03:58:16.647Z,62.84
2023-03-25T04:01:37.709Z,62.86
2023-03-25T04:04:45.984Z,62.83
2023-03-25T04:08:13.965Z,62.84
2023-03-25T04:11:28.997Z,62.83
2023-03-25T04:14:35.814Z,62.91
2023-03-25T04:17:43.458Z,62.95
2023-03-25T04:20:51.730Z,62.98
2023-03-25T04:23:58.706Z,63.05
2023-03-25T04:27:06.170Z,63.10
2023-03-25T04:30:11.929Z,63.11
2023-03-25T04:33:18.606Z,63.12
2023-03-25T04:36:27.110Z,63.14
2023-03-25T04:39:35.525Z,63.21
2023-03-25T04:42:44.362Z,63.25
2023-03-25T04:45:52.216Z,63.33
2023-03-25T04:49:00.007Z,63.37
2023-03-25T04:52:11.680Z,63.36
2023-03-25T04:55:19.562Z,63.39
2023-03-25T04:58:20.636Z,63.50
2023-03-25T05:01:08.553Z,63.54
2023-03-25T05:04:03.326Z,63.65
2023-03-25T05:06:58.766Z,63.73
2023-03-25T05:10:06.413Z,63.78
2023-03-25T05:13:16.479Z,63.85
2023-03-25T05:16:23.195Z,63.89
2023-03-25T05:19:30.312Z,63.93
2023-03-25T05:22:36.419Z,63.98
2023-03-25T05:25:44.932Z,63.98
2023-03-25T05:28:51.189Z,63.98
2023-03-25T05:31:59.728Z,63.95
2023-03-25T05:35:09.293Z,63.92
2023-03-25T05:38:22.503Z,63.95
2023-03-25T05:41:29.874Z,63.87
2023-03-25T05:44:35.858Z,63.71
2023-03-25T05:47:45.048Z,63.68
2023-03-25T05:50:54.599Z,63.58
2023-03-25T05:54:02.003Z,63.58
2023-03-25T05:57:07.964Z,63.57
2023-03-25T06:00:15.755Z,63.53
2023-03-25T06:03:22.587Z,63.51
2023-03-25T06:06:31.289Z,63.39
2023-03-25T06:09:37.720Z,63.34
2023-03-25T06:12:44.851Z,63.37
2023-03-25T06:15:51.761Z,63.47
2023-03-25T06:19:03.220Z,63.51
2023-03-25T06:22:11.468Z,63.44
2023-03-25T06:25:17.716Z,63.39
2023-03-25T06:28:25.310Z,63.29
2023-03-25T06:31:36.559Z,63.16
2023-03-25T06:34:43.962Z,62.99
2023-03-25T06:37:50.794Z,62.82
2023-03-25T06:41:00.224Z,62.63
2023-03-25T06:44:07.749Z,62.34
2023-03-25T06:47:19.960Z,62.30
2023-03-25T06:50:27.364Z,62.03
2023-03-25T06:53:34.415Z,61.97
2023-03-25T06:56:40.642Z,62.00
2023-03-25T06:59:46.554Z,62.01
2023-03-25T07:02:54.235Z,62.05
2023-03-25T07:06:00.057Z,61.93
2023-03-25T07:09:05.866Z,61.87
2023-03-25T07:12:13.495Z,61.68
2023-03-25T07:15:21.534Z,61.58
2023-03-25T07:18:28.251Z,61.54
2023-03-25T07:21:34.403Z,61.33
2023-03-25T07:24:40.517Z,61.13
2023-03-25T07:27:47.032Z,60.84
2023-03-25T07:30:46.564Z,60.62
2023-03-25T07:33:53.592Z,60.43
2023-03-25T07:36:58.701Z,60.25
2023-03-25T07:40:03.879Z,60.10
2023-03-25T07:43:08.620Z,59.98
2023-03-25T07:46:15.316Z,59.73
2023-03-25T07:49:21.273Z,59.62
2023-03-25T07:52:28.151Z,59.50
2023-03-25T07:55:34.556Z,59.30
2023-03-25T07:58:40.772Z,58.97
2023-03-25T08:01:47.134Z,59.04
2023-03-25T08:04:53.771Z,59.13
2023-03-25T08:07:59.520Z,59.07
2023-03-25T08:11:06.306Z,58.99
2023-03-25T08:14:12.009Z,58.76
2023-03-25T08:17:21.455Z,58.62
2023-03-25T08:20:28.629Z,58.53
2023-03-25T08:23:35.505Z,58.46
2023-03-25T08:26:42.457Z,58.34
2023-03-25T08:29:48.017Z,58.24
2023-03-25T08:32:56.749Z,58.13
2023-03-25T08:36:03.013Z,57.85
2023-03-25T08:39:10.479Z,57.68
2023-03-25T08:42:17.118Z,57.61
2023-03-25T08:45:24.082Z,57.47
2023-03-25T08:48:32.455Z,57.11
2023-03-25T08:51:39.571Z,56.91
2023-03-25T08:54:45.870Z,56.81
2023-03-25T08:57:54.562Z,56.73
2023-03-25T09:01:04.329Z,56.67
2023-03-25T09:04:09.731Z,56.45
2023-03-25T09:07:17.329Z,56.30
2023-03-25T09:10:23.683Z,56.14
2023-03-25T09:13:29.180Z,56.09
2023-03-25T09:16:35.206Z,56.05
2023-03-25T09:19:41.728Z,55.94
2023-03-25T09:22:48.070Z,55.81
2023-03-25T09:25:54.132Z,55.77
2023-03-25T09:29:02.352Z,55.76
2023-03-25T09:32:09.791Z,55.72
2023-03-25T09:35:15.356Z,55.64
2023-03-25T09:38:22.255Z,55.37
2023-03-25T09:41:57.218Z,55.21
2023-03-25T09:45:40.403Z,55.15
2023-03-25T09:49:03.422Z,54.94
2023-03-25T09:52:09.607Z,54.85
2023-03-25T09:55:21.367Z,54.81
2023-03-25T09:58:57.742Z,54.69
2023-03-25T10:02:16.708Z,54.53
2023-03-25T10:05:56.547Z,54.43
2023-03-25T10:09:43.344Z,54.33
2023-03-25T10:13:14.008Z,54.16
2023-03-25T10:16:53.086Z,53.95
2023-03-25T10:20:28.685Z,53.69
2023-03-25T10:23:42.617Z,53.62
2023-03-25T10:27:08.771Z,53.55
2023-03-25T10:30:25.079Z,53.42
2023-03-25T10:33:50.963Z,53.37
2023-03-25T10:37:06.790Z,53.20
2023-03-25T10:40:32.382Z,52.99
2023-03-25T10:43:50.818Z,52.80
2023-03-25T10:47:20.296Z,52.66
2023-03-25T10:50:31.176Z,52.59
2023-03-25T10:53:40.930Z,52.49
2023-03-25T10:56:51.622Z,52.45
2023-03-25T11:00:17.097Z,52.28
2023-03-25T11:03:27.970Z,52.20
2023-03-25T11:06:35.999Z,52.07
2023-03-25T11:09:44.862Z,52.02
2023-03-25T11:12:55.403Z,51.92
2023-03-25T11:16:01.775Z,51.85
2023-03-25T11:19:08.404Z,51.74
2023-03-25T11:22:38.936Z,51.50
2023-03-25T11:25:52.665Z,51.43
2023-03-25T11:29:10.441Z,51.46
2023-03-25T11:32:28.652Z,51.19
2023-03-25T11:35:41.501Z,50.73
2023-03-25T11:38:45.995Z,50.56
2023-03-25T11:41:51.926Z,50.43
2023-03-25T11:44:58.418Z,50.37
2023-03-25T11:48:04.673Z,50.38
2023-03-25T11:51:13.308Z,50.29
2023-03-25T11:54:27.122Z,50.27
2023-03-25T11:57:42.114Z,50.34
2023-03-25T12:00:56.882Z,50.33
2023-03-25T12:04:03.708Z,50.15
2023-03-25T12:07:17.648Z,49.94
2023-03-25T12:10:31.913Z,49.75
2023-03-25T12:13:59.448Z,49.42
2023-03-25T12:17:41.455Z,49.38
2023-03-25T12:21:11.455Z,49.33
2023-03-25T12:24:30.651Z,49.11
2023-03-25T12:28:17.242Z,49.11
2023-03-25T12:31:28.453Z,49.12
2023-03-25T12:34:48.342Z,49.03
2023-03-25T12:38:27.539Z,48.93
2023-03-25T12:41:56.877Z,48.98
2023-03-25T12:45:29.990Z,48.99
2023-03-25T12:48:56.687Z,48.87
2023-03-25T12:52:37.725Z,48.89
2023-03-25T12:56:11.212Z,48.84
2023-03-25T12:59:53.789Z,48.84
2023-03-25T13:03:28.089Z,48.88
2023-03-25T13:06:58.676Z,48.99
2023-03-25T13:10:29.361Z,49.27
2023-03-25T13:13:36.001Z,49.50
2023-03-25T13:16:44.772Z,49.37
2023-03-25T13:19:51.311Z,49.31
2023-03-25T13:23:05.718Z,49.17
2023-03-25T13:26:26.496Z,48.97
2023-03-25T13:29:58.628Z,48.87
2023-03-25T13:33:09.613Z,48.82
2023-03-25T13:36:45.178Z,48.85
2023-03-25T13:40:28.851Z,48.84
2023-03-25T13:43:59.789Z,48.86
2023-03-25T13:47:11.455Z,48.91
2023-03-25T13:50:38.476Z,48.98
2023-03-25T13:53:55.190Z,48.96
2023-03-25T13:57:26.733Z,49.13
2023-03-25T14:00:57.081Z,49.10
2023-03-25T14:04:47.048Z,49.07
2023-03-25T14:08:08.760Z,49.03
2023-03-25T14:11:30.935Z,49.08
2023-03-25T14:14:36.550Z,49.01
2023-03-25T14:17:42.252Z,48.94
2023-03-25T14:20:54.818Z,48.97
2023-03-25T14:24:03.337Z,49.11
2023-03-25T14:27:14.968Z,49.13
2023-03-25T14:30:42.727Z,49.41
2023-03-25T14:34:15.713Z,49.41
2023-03-25T14:37:38.615Z,49.08
2023-03-25T14:41:04.109Z,48.99
2023-03-25T14:44:15.372Z,49.06
2023-03-25T14:47:44.481Z,49.01
2023-03-25T14:50:51.589Z,48.96
2023-03-25T14:54:33.647Z,49.03
2023-03-25T14:57:42.891Z,49.05
2023-03-25T15:00:56.121Z,48.89
2023-03-25T15:04:04.021Z,48.90
2023-03-25T15:07:13.083Z,48.95
2023-03-25T15:10:22.672Z,49.00
2023-03-25T15:13:45.634Z,49.11
2023-03-25T15:17:05.310Z,49.13
2023-03-25T15:20:24.582Z,49.13
2023-03-25T15:24:07.438Z,49.15
2023-03-25T15:27:38.779Z,49.27
2023-03-25T15:31:04.769Z,49.37
2023-03-25T15:34:36.565Z,49.49
2023-03-25T15:38:03.360Z,49.62
2023-03-25T15:41:30.734Z,49.73
2023-03-25T15:45:00.589Z,49.84
2023-03-25T15:48:32.340Z,49.93
2023-03-25T15:51:58.158Z,50.05
2023-03-25T15:55:20.409Z,50.15
2023-03-25T15:58:40.870Z,50.23
2023-03-25T16:01:53.157Z,50.37
2023-03-25T16:05:01.899Z,50.51
2023-03-25T16:08:08.494Z,50.65
2023-03-25T16:11:37.850Z,50.77
2023-03-25T16:14:47.992Z,50.93
2023-03-25T16:17:55.249Z,51.05
2023-03-25T16:21:01.319Z,51.17
2023-03-25T16:24:11.401Z,51.25
2023-03-25T16:27:28.170Z,51.33
2023-03-25T16:30:40.840Z,51.42
2023-03-25T16:33:49.419Z,51.54
2023-03-25T16:36:57.147Z,51.57
2023-03-25T16:40:07.132Z,51.62
2023-03-25T16:43:20.505Z,51.65
2023-03-25T16:46:26.584Z,51.72
2023-03-25T16:49:50.699Z,51.86
2023-03-25T16:52:57.147Z,51.90
2023-03-25T16:56:04.140Z,51.99
2023-03-25T16:59:22.904Z,52.11
2023-03-25T17:02:46.627Z,52.17
2023-03-25T17:05:55.640Z,52.26
2023-03-25T17:09:12.512Z,52.37
2023-03-25T17:12:25.054Z,52.46
2023-03-25T17:15:32.054Z,52.55
2023-03-25T17:18:43.890Z,52.60
2023-03-25T17:21:51.520Z,52.65
2023-03-25T17:24:57.391Z,52.72
2023-03-25T17:28:03.112Z,52.75
2023-03-25T17:31:09.334Z,52.80
2023-03-25T17:34:27.407Z,52.87
2023-03-25T17:37:33.654Z,52.92
2023-03-25T17:40:40.607Z,53.02
2023-03-25T17:43:48.821Z,53.12
2023-03-25T17:46:55.936Z,53.21
2023-03-25T17:50:03.640Z,53.33
2023-03-25T17:53:10.700Z,53.39
2023-03-25T17:56:17.474Z,53.50
2023-03-25T17:59:34.697Z,53.65
2023-03-25T18:02:43.000Z,53.75
2023-03-25T18:05:50.481Z,53.86
2023-03-25T18:08:57.599Z,53.93
2023-03-25T18:12:06.333Z,54.04
2023-03-25T18:15:13.572Z,54.12
2023-03-25T18:18:21.263Z,54.21
2023-03-25T18:21:29.948Z,54.30
2023-03-25T18:24:35.048Z,54.41
2023-03-25T18:27:44.205Z,54.52
2023-03-25T18:31:11.853Z,54.63
2023-03-25T18:34:20.045Z,54.68
2023-03-25T18:37:25.857Z,54.79
2023-03-25T18:40:35.988Z,54.87
2023-03-25T18:43:45.296Z,55.00
2023-03-25T18:46:51.482Z,55.15
2023-03-25T18:49:57.701Z,55.31
2023-03-25T18:53:04.966Z,55.44
2023-03-25T18:56:11.261Z,55.57
2023-03-25T18:59:17.990Z,55.62
2023-03-25T19:02:24.555Z,55.70
2023-03-25T19:05:30.577Z,55.86
2023-03-25T19:08:37.690Z,55.97
2023-03-25T19:11:43.889Z,56.02
2023-03-25T19:14:51.817Z,56.08
2023-03-25T19:18:01.365Z,56.15
2023-03-25T19:21:09.728Z,56.26
2023-03-25T19:24:15.648Z,56.38
2023-03-25T19:27:21.829Z,56.51
2023-03-25T19:30:31.869Z,56.62
2023-03-25T19:33:37.917Z,56.70
2023-03-25T19:36:42.742Z,56.80
2023-03-25T19:39:49.758Z,56.95
2023-03-25T19:42:55.809Z,57.04
2023-03-25T19:46:02.295Z,57.13
2023-03-25T19:49:10.859Z,57.25
2023-03-25T19:52:17.176Z,57.34
2023-03-25T19:55:23.934Z,57.46
2023-03-25T19:58:32.244Z,57.59
2023-03-25T20:01:39.965Z,57.67
2023-03-25T20:04:49.138Z,57.74
2023-03-25T20:08:02.184Z,57.80
2023-03-25T20:11:08.378Z,57.87
2023-03-25T20:14:16.058Z,57.94
2023-03-25T20:17:22.504Z,58.04
2023-03-25T20:20:29.457Z,58.11
2023-03-25T20:23:37.822Z,58.20
2023-03-25T20:26:43.918Z,58.28
2023-03-25T20:29:50.003Z,58.34
2023-03-25T20:32:56.479Z,58.32
2023-03-25T20:36:03.866Z,58.36
2023-03-25T20:39:12.636Z,58.41
2023-03-25T20:42:18.597Z,58.47
2023-03-25T20:45:27.114Z,58.53
2023-03-25T20:48:34.915Z,58.64
2023-03-25T20:51:43.560Z,58.71
2023-03-25T20:54:50.057Z,58.79
2023-03-25T20:57:56.945Z,58.82
2023-03-25T21:01:05.930Z,58.93
2023-03-25T21:04:14.420Z,58.96
2023-03-25T21:07:24.650Z,59.01
2023-03-25T21:10:30.773Z,59.02
2023-03-25T21:13:38.885Z,59.11
2023-03-25T21:16:47.639Z,59.25
2023-03-25T21:19:57.222Z,59.37
2023-03-25T21:23:05.744Z,59.44
2023-03-25T21:26:14.579Z,59.50
2023-03-25T21:29:20.493Z,59.53
2023-03-25T21:32:27.695Z,59.57
2023-03-25T21:35:35.433Z,59.61
2023-03-25T21:38:41.062Z,59.74
2023-03-25T21:41:47.143Z,59.81
2023-03-25T21:44:55.369Z,59.79
2023-03-25T21:48:02.329Z,59.85
2023-03-25T21:51:11.394Z,59.86
2023-03-25T21:54:18.672Z,59.96
2023-03-25T21:57:24.760Z,59.94
2023-03-25T22:00:32.912Z,60.01
2023-03-25T22:03:43.666Z,60.06
2023-03-25T22:06:49.134Z,60.15
2023-03-25T22:09:55.690Z,60.21
2023-03-25T22:13:02.221Z,60.26
2023-03-25T22:16:11.722Z,60.31
2023-03-25T22:19:22.570Z,60.45
2023-03-25T22:22:29.045Z,60.58
2023-03-25T22:25:37.952Z,60.74
2023-03-25T22:28:44.596Z,60.83
2023-03-25T22:31:50.625Z,60.96
2023-03-25T22:34:57.371Z,61.12
2023-03-25T22:38:04.227Z,61.34
2023-03-25T22:41:10.858Z,61.54
2023-03-25T22:44:17.289Z,61.67
2023-03-25T22:47:24.704Z,61.76
2023-03-25T22:50:31.335Z,61.89
2023-03-25T22:53:40.071Z,62.06
2023-03-25T22:56:45.410Z,62.17
2023-03-25T22:59:52.281Z,62.30
2023-03-25T23:02:54.193Z,62.42
2023-03-25T23:06:13.564Z,62.53
2023-03-25T23:09:24.165Z,62.62
2023-03-25T23:12:36.077Z,62.72
2023-03-25T23:15:43.449Z,62.87
2023-03-25T23:18:49.358Z,62.94
2023-03-25T23:21:55.288Z,63.01
2023-03-25T23:25:02.820Z,63.08
2023-03-25T23:28:08.618Z,63.16
2023-03-25T23:31:14.932Z,63.19
2023-03-25T23:34:22.691Z,63.24
2023-03-25T23:37:28.372Z,63.36
2023-03-25T23:40:35.579Z,63.38
2023-03-25T23:43:41.718Z,63.46
2023-03-25T23:46:48.969Z,63.56
2023-03-25T23:49:55.792Z,63.70
2023-03-25T23:53:04.184Z,63.83
2023-03-25T23:56:09.723Z,63.93
2023-03-25T23:59:15.845Z,64.04
